Tenino, WA (98589)

7:22 PM PDT on October 22, 2014 (GMT -0700)
Tenino, WA | Change Station
CLOSE
Current Station
Personal Weather Station
Location: Tenino, WA
Elevation: 283 ft
Nearby Weather Stations

Elev 283 ft 46.86 °N, 122.85 °W | Updated 1 second ago

Overcast
Overcast
55.8 °F
Feels Like 55.8 °F
N
2.0
Wind Variable Wind from SSW
Gusts 4.0 mph

Today
High -- | Low -- °F
--% Chance of Precip.
Yesterday
High -- | Low -- °F
Precip. -- in
7:39 AM 6:11 PM
Waning Crescent, 1% visible
Pressure 29.58 in
Visibility 10.0 miles
Clouds Mostly Cloudy 6000 ft
Overcast 7500 ft
Dew Point 54 °F
Humidity 92%
Rainfall 0.99 in
Snow Depth Not available.
UV 0 out of 12
Pollen .40 out of 12
PM2.5 Good
Flu Activity Sporadic
METAR KOLM 230154Z 20010KT 10SM -RA BKN060 OVC075 13/11 A2958 RMK AO2 RAB41 SLP017 P0000 T01280111 $

More Conditions Fewer Conditions

Pressure 29.58 in
Visibility 10.0 miles
Clouds Mostly Cloudy 6000 ft
Overcast 7500 ft
Dew Point 54 °F
Humidity 92%
Rainfall 0.99 in
Snow Depth Not available.
UV 0 out of 12
Pollen .40 out of 12
PM2.5 Good
Flu Activity Sporadic
METAR KOLM 230154Z 20010KT 10SM -RA BKN060 OVC075 13/11 A2958 RMK AO2 RAB41 SLP017 P0000 T01280111 $

More Conditions Fewer Conditions

10-Day Weather Forecast

Almanac

Astronomy

Oct. 22, 2014 Rise Set
Actual Time 7:39 AM PDT 6:11 PM PDT
Civil Twilight 7:08 AM PDT 6:42 PM PDT
Nautical Twilight 6:32 AM PDT 7:17 PM PDT
Astronomical Twilight 5:57 AM PDT 7:52 PM PDT
Moon 6:21 AM PDT (10/22) 5:44 PM PDT (10/22)
Length of Visible Light 11h 34m
Length of Day
10h 32m
Tomorrow will be 3m 9s shorter.
Waning Crescent, 1% of the Moon is Illuminated
Today
Waning Crescent
Oct 23
New
Oct 30
First Quarter
Nov 6
Full
Nov 14
Last Quarter

Today's Extremes

State Highs State Lows

Community

WunderPhotos

Upload Photos

1,764,109 photos uploaded!

Nearby

Air Quality

  Air Quality AQ Index Pollutant
Yesterday Good
PM2.5
Current Good
PM2.5

Snow Depth

Station Depth Elevation
Spirit Lake 0 in 3120 ft
Swift Creek 0 in 3770 ft
Lone Pine 0 in 3800 ft
June Lake 0 in 3340 ft
Spencer Meadow 0 in 3400 ft

Earthquake Activity

City Distance Mag. Time & Date
No recent earthquake activity has been reported nearby.
Minimum magnitude displayed is 2.5.

Coastal Water Temperatures

Place Temperature
Port Townsend, WA 53.1 °F
Seattle, WA 55.0 °F
Friday Harbor, WA 51.1 °F
Tacoma, WA 54.0 °F

Nearby Weather Stations